Time;durP1;ratioP1;P1;durP2;ratioP2;P2;SDS_P1;SDS_P2;PMS_P1;PMS_P2;Temp;Humidity;BMP_temperature;BMP_pressure;BME280_temperature;BME280_humidity;BME280_pressure;Samples;Min_cycle;Max_cycle;Signal;HPM_P1;HPM_P2
2022/01/16 00:00:40;;;;;;;6.68;2.80;;;2.30;94.30;;;;;;5081401;28;20039;-77
2022/01/16 00:05:49;;;;;;;;;;;2.30;94.30;;;;;;5102622;28;20051;-77
2022/01/16 00:08:15;;;;;;;5.63;2.47;;;2.40;94.40;;;;;;5098467;28;19956;-79
2022/01/16 00:10:41;;;;;;;6.20;2.65;;;2.30;94.30;;;;;;5080300;28;20043;-77
2022/01/16 00:13:07;;;;;;;5.57;2.47;;;2.30;94.30;;;;;;5081632;28;20039;-77
2022/01/16 00:15:33;;;;;;;6.28;2.70;;;2.30;94.30;;;;;;5080794;28;20061;-77
2022/01/16 00:18:09;;;;;;;5.68;2.60;;;2.20;94.40;;;;;;5080551;28;20103;-79
2022/01/16 00:20:35;;;;;;;5.90;2.53;;;2.20;94.30;;;;;;5083464;28;20051;-79
2022/01/16 00:23:05;;;;;;;7.68;3.22;;;2.20;94.30;;;;;;5081471;28;20046;-79
2022/01/16 00:25:31;;;;;;;7.70;3.28;;;2.20;94.40;;;;;;5081560;28;20125;-77
2022/01/16 00:27:57;;;;;;;8.32;3.22;;;2.20;94.40;;;;;;5080761;28;20047;-79
2022/01/16 00:30:23;;;;;;;7.32;3.15;;;2.20;94.40;;;;;;5079227;28;20043;-77
2022/01/16 00:32:49;;;;;;;8.00;3.42;;;2.10;94.30;;;;;;5080567;28;20037;-77
2022/01/16 00:35:16;;;;;;;6.93;2.70;;;2.20;94.40;;;;;;5080489;28;20050;-77
2022/01/16 00:37:42;;;;;;;6.57;2.85;;;2.20;94.40;;;;;;5080717;28;20046;-77
2022/01/16 00:40:11;;;;;;;6.20;2.42;;;2.30;94.40;;;;;;5080417;28;20043;-77
2022/01/16 00:42:37;;;;;;;6.50;2.50;;;2.30;94.40;;;;;;5097031;28;20039;-77
2022/01/16 00:45:04;;;;;;;6.65;2.67;;;2.30;94.40;;;;;;5080853;28;20035;-77
2022/01/16 00:47:30;;;;;;;8.40;3.50;;;2.30;94.40;;;;;;5080530;28;20047;-77
2022/01/16 00:49:56;;;;;;;10.27;3.63;;;2.20;94.30;;;;;;5080361;28;20047;-78
2022/01/16 00:52:22;;;;;;;9.68;3.65;;;2.30;94.40;;;;;;5080440;28;20096;-77
2022/01/16 00:54:48;;;;;;;7.22;3.22;;;2.30;94.30;;;;;;5080357;28;20035;-77
2022/01/16 00:57:14;;;;;;;12.10;3.85;;;2.40;94.40;;;;;;5080234;28;20049;-77
2022/01/16 00:59:40;;;;;;;7.82;3.47;;;2.30;94.30;;;;;;5096977;28;20039;-77
2022/01/16 01:02:07;;;;;;;10.68;4.32;;;2.20;94.30;;;;;;5080119;28;20043;-77
2022/01/16 01:04:33;;;;;;;9.40;3.60;;;2.20;94.40;;;;;;5080242;28;20043;-77
2022/01/16 01:06:59;;;;;;;8.00;3.65;;;2.30;94.40;;;;;;5080280;28;20134;-77
2022/01/16 01:09:25;;;;;;;8.77;3.45;;;2.20;94.30;;;;;;5079992;28;20046;-77
2022/01/16 01:11:51;;;;;;;7.65;3.55;;;2.20;94.30;;;;;;5080585;28;20047;-77
2022/01/16 01:14:26;;;;;;;10.43;4.32;;;2.20;94.30;;;;;;5079978;28;20465;-77
2022/01/16 01:16:54;;;;;;;8.38;3.60;;;2.00;94.30;;;;;;5082244;28;20063;-77
2022/01/16 01:19:29;;;;;;;9.65;4.03;;;2.10;94.30;;;;;;5080708;28;20126;-77
2022/01/16 01:21:56;;;;;;;11.07;4.28;;;2.10;94.40;;;;;;5080525;27;20039;-77
2022/01/16 01:24:23;;;;;;;7.78;3.53;;;2.30;94.40;;;;;;5082040;28;20038;-77
2022/01/16 01:26:58;;;;;;;8.32;3.60;;;2.10;94.40;;;;;;5083382;28;20050;-77
2022/01/16 01:29:29;;;;;;;9.68;4.25;;;2.10;94.40;;;;;;5085515;28;20092;-77
2022/01/16 01:31:56;;;;;;;9.45;4.45;;;2.10;94.40;;;;;;5084140;28;20050;-77
2022/01/16 01:34:22;;;;;;;8.68;3.63;;;2.00;94.40;;;;;;5083676;28;20410;-77
2022/01/16 01:36:49;;;;;;;6.32;3.13;;;2.00;94.40;;;;;;5083169;28;20039;-78
2022/01/16 01:39:17;;;;;;;7.78;3.13;;;2.00;94.40;;;;;;5083262;28;20216;-77
2022/01/16 01:41:44;;;;;;;5.35;2.80;;;2.10;94.40;;;;;;5083178;28;20130;-77
2022/01/16 01:52:08;;;;;;;10.57;3.33;;;2.00;94.40;;;;;;5104223;28;20170;-77
2022/01/16 01:54:34;;;;;;;6.95;3.05;;;2.00;94.40;;;;;;5082991;28;20090;-77
2022/01/16 01:57:01;;;;;;;7.10;3.13;;;2.10;94.40;;;;;;5082970;28;20050;-77
2022/01/16 01:59:28;;;;;;;6.13;3.00;;;2.00;94.40;;;;;;5082581;28;20039;-77
2022/01/16 02:01:54;;;;;;;6.93;2.78;;;2.00;94.40;;;;;;5083066;28;20551;-78
2022/01/16 02:04:20;;;;;;;6.35;2.70;;;2.00;94.40;;;;;;5083021;28;20486;-77
2022/01/16 02:06:46;;;;;;;8.80;3.58;;;2.00;94.40;;;;;;5082607;28;20184;-77
2022/01/16 02:09:12;;;;;;;9.05;3.40;;;2.00;94.40;;;;;;5082189;28;20070;-77
2022/01/16 02:11:38;;;;;;;7.82;3.70;;;2.00;94.40;;;;;;5082510;28;20043;-77
2022/01/16 02:14:12;;;;;;;7.82;3.08;;;1.90;94.40;;;;;;5082548;28;20050;-77
2022/01/16 02:30:43;;;;;;;10.73;3.88;;;1.90;94.40;;;;;;5118520;28;20100;-79
2022/01/16 02:34:28;;;;;;;8.07;3.95;;;1.80;94.40;;;;;;5134450;28;20039;-79
2022/01/16 02:35:46;;;;;;;8.02;3.40;;;1.90;94.40;;;;;;5118023;28;20442;-79
2022/01/16 02:38:12;;;;;;;8.57;3.72;;;1.90;94.40;;;;;;5115714;28;20039;-80
2022/01/16 02:40:43;;;;;;;7.18;2.80;;;2.00;94.40;;;;;;5116261;28;20092;-80
2022/01/16 02:43:09;;;;;;;6.30;2.63;;;1.90;94.40;;;;;;5116940;28;20046;-79
2022/01/16 02:45:37;;;;;;;7.35;3.05;;;2.00;94.40;;;;;;5116121;28;20036;-79
2022/01/16 02:48:06;;;;;;;7.53;3.15;;;2.00;94.40;;;;;;5134437;28;20031;-79
2022/01/16 02:50:35;;;;;;;6.93;3.17;;;2.00;94.40;;;;;;5116360;28;20054;-79
2022/01/16 02:53:07;;;;;;;6.10;2.95;;;2.10;94.40;;;;;;5099910;28;20096;-79
2022/01/16 02:55:33;;;;;;;6.65;2.95;;;2.00;94.40;;;;;;5099743;28;20501;-79
2022/01/16 02:57:58;;;;;;;7.47;3.05;;;2.00;94.40;;;;;;5082035;28;20067;-79
2022/01/16 03:31:00;;;;;;;5.15;2.50;;;2.20;94.30;;;;;;4875757;29;20048;-79
2022/01/16 03:37:43;;;;;;;6.50;2.70;;;2.10;94.30;;;;;;4892528;29;20059;-79
2022/01/16 04:02:37;;;;;;;5.93;2.60;;;2.20;94.20;;;;;;4827847;29;20050;-80
2022/01/16 04:16:56;;;;;;;7.25;2.40;;;2.30;94.20;;;;;;4776691;30;19924;-80
2022/01/16 04:26:40;;;;;;;6.97;2.60;;;2.30;94.20;;;;;;5722176;22;20089;-79
2022/01/16 04:29:06;;;;;;;6.85;2.60;;;2.30;94.20;;;;;;5080104;28;20039;-78
2022/01/16 04:31:32;;;;;;;6.82;2.75;;;2.30;94.20;;;;;;5076504;28;20032;-79
2022/01/16 04:33:58;;;;;;;7.03;2.70;;;2.40;94.30;;;;;;5075126;28;20077;-78
2022/01/16 04:36:24;;;;;;;7.95;3.13;;;2.30;94.20;;;;;;5074627;28;20039;-79
2022/01/16 04:38:52;;;;;;;10.20;3.50;;;2.30;94.30;;;;;;5075743;28;20518;-78
2022/01/16 04:43:59;;;;;;;9.53;2.90;;;2.40;94.30;;;;;;5094369;28;20471;-79
2022/01/16 04:46:28;;;;;;;9.50;4.10;;;2.40;94.30;;;;;;5079907;28;20474;-78
2022/01/16 04:48:56;;;;;;;9.68;4.13;;;2.40;94.30;;;;;;5079871;28;20043;-78
2022/01/16 04:51:23;;;;;;;12.45;4.20;;;2.40;94.30;;;;;;5079844;28;20050;-79
2022/01/16 04:53:50;;;;;;;9.23;4.03;;;2.40;94.30;;;;;;5079829;28;20104;-78
2022/01/16 04:56:15;;;;;;;8.70;4.00;;;2.40;94.30;;;;;;5076786;28;20092;-78
2022/01/16 04:58:42;;;;;;;8.10;3.55;;;2.50;94.30;;;;;;5116512;28;20482;-78
2022/01/16 05:01:09;;;;;;;8.70;3.58;;;2.50;94.30;;;;;;5100230;28;20079;-78
2022/01/16 05:03:36;;;;;;;8.27;3.95;;;2.50;94.30;;;;;;5083837;28;20036;-78
2022/01/16 05:06:03;;;;;;;9.77;4.30;;;2.50;94.30;;;;;;5083435;28;20039;-78
2022/01/16 05:08:29;;;;;;;8.55;3.83;;;2.50;94.30;;;;;;5097132;28;20035;-78
2022/01/16 05:10:59;;;;;;;9.05;3.95;;;2.50;94.30;;;;;;5080082;28;20039;-78
2022/01/16 05:16:35;;;;;;;8.32;3.30;;;2.50;94.30;;;;;;5080005;28;20031;-78
2022/01/16 05:18:55;;;;;;;;;;;2.50;94.30;;;;;;5113631;28;20047;-78
2022/01/16 05:21:21;;;;;;;6.70;2.92;;;2.60;94.30;;;;;;5095485;28;19904;-78
2022/01/16 05:23:48;;;;;;;8.43;3.25;;;2.60;94.30;;;;;;5078205;28;20118;-78
2022/01/16 05:26:17;;;;;;;8.77;3.90;;;2.60;94.30;;;;;;5079871;28;20034;-78
2022/01/16 05:28:44;;;;;;;7.68;3.10;;;2.60;94.30;;;;;;5083270;28;20043;-78
2022/01/16 05:31:11;;;;;;;6.55;3.22;;;2.70;94.30;;;;;;5083199;28;20062;-78
2022/01/16 05:33:37;;;;;;;9.07;3.75;;;2.70;94.30;;;;;;5081819;28;20127;-78
2022/01/16 05:36:04;;;;;;;9.25;3.50;;;2.70;94.30;;;;;;5083082;28;20146;-78
2022/01/16 05:38:30;;;;;;;8.68;4.18;;;2.60;94.20;;;;;;5082798;28;20107;-78
2022/01/16 05:40:55;;;;;;;9.95;4.60;;;2.70;94.30;;;;;;5079186;28;20051;-78
2022/01/16 05:43:22;;;;;;;10.57;4.78;;;2.70;94.30;;;;;;5078099;28;20039;-79
2022/01/16 05:45:48;;;;;;;10.52;4.55;;;2.70;94.30;;;;;;5077804;28;20040;-78
2022/01/16 05:48:14;;;;;;;10.88;4.45;;;2.70;94.30;;;;;;5078968;28;20123;-77
2022/01/16 05:50:40;;;;;;;8.95;4.03;;;2.70;94.30;;;;;;5078891;28;20134;-78
2022/01/16 05:53:06;;;;;;;9.60;4.55;;;2.70;94.30;;;;;;5078077;28;20039;-78
2022/01/16 05:55:36;;;;;;;11.18;4.80;;;2.80;94.30;;;;;;5083630;28;20043;-78
2022/01/16 05:58:06;;;;;;;11.85;5.30;;;2.70;94.30;;;;;;5084570;28;20470;-78
2022/01/16 06:00:33;;;;;;;11.40;5.05;;;2.70;94.30;;;;;;5082798;28;20104;-78
2022/01/16 06:02:59;;;;;;;11.15;4.85;;;2.70;94.50;;;;;;5080466;28;20067;-78
2022/01/16 06:05:26;;;;;;;10.88;4.65;;;2.70;94.30;;;;;;5082428;28;20103;-79
2022/01/16 06:07:56;;;;;;;12.77;5.82;;;2.80;94.30;;;;;;5081914;28;20435;-79
2022/01/16 06:10:22;;;;;;;11.70;5.38;;;2.70;94.30;;;;;;5083824;28;20043;-78
2022/01/16 06:12:48;;;;;;;13.35;5.43;;;2.70;94.30;;;;;;5099967;28;20023;-78
2022/01/16 06:15:14;;;;;;;11.60;5.13;;;2.70;94.30;;;;;;5083035;28;20397;-78
2022/01/16 06:17:40;;;;;;;11.55;5.15;;;2.80;94.30;;;;;;5079405;28;20035;-78
2022/01/16 06:20:07;;;;;;;11.93;4.60;;;2.70;94.30;;;;;;5077092;28;20039;-78
2022/01/16 06:22:33;;;;;;;12.55;5.25;;;2.80;94.30;;;;;;5078474;28;20070;-78
2022/01/16 06:24:59;;;;;;;12.80;5.43;;;2.70;94.30;;;;;;5078503;28;20055;-79
2022/01/16 06:27:25;;;;;;;13.27;6.22;;;2.70;94.30;;;;;;5077493;28;20042;-78
2022/01/16 06:29:50;;;;;;;14.05;6.03;;;2.70;94.30;;;;;;5078614;28;20130;-79
2022/01/16 06:32:16;;;;;;;12.60;5.60;;;2.70;94.30;;;;;;5077939;28;20147;-78
2022/01/16 06:34:42;;;;;;;13.88;6.93;;;2.80;94.30;;;;;;5077394;28;20047;-79
2022/01/16 06:37:09;;;;;;;17.88;7.55;;;2.70;94.30;;;;;;5077104;28;20052;-79
2022/01/16 06:39:36;;;;;;;14.27;6.57;;;2.70;94.30;;;;;;5078362;28;20067;-78
2022/01/16 06:42:02;;;;;;;15.18;6.53;;;2.80;94.30;;;;;;5078202;28;20920;-79
2022/01/16 06:44:28;;;;;;;14.93;7.40;;;2.80;94.30;;;;;;5094018;28;20036;-79
2022/01/16 06:46:58;;;;;;;15.77;6.88;;;2.70;94.20;;;;;;5075035;28;20690;-79
2022/01/16 06:49:26;;;;;;;12.82;6.63;;;2.80;94.30;;;;;;5078500;28;20895;-79
2022/01/16 06:51:52;;;;;;;11.75;5.95;;;2.70;94.30;;;;;;5077957;28;20481;-79
2022/01/16 06:54:18;;;;;;;15.73;7.03;;;2.70;94.30;;;;;;5077178;28;20032;-79
2022/01/16 06:56:44;;;;;;;13.52;6.57;;;2.80;94.30;;;;;;5078330;28;20044;-79
2022/01/16 06:59:10;;;;;;;12.10;5.95;;;2.80;94.30;;;;;;5077483;28;20486;-79
2022/01/16 07:01:36;;;;;;;14.45;6.25;;;2.80;94.30;;;;;;5076975;28;20035;-78
2022/01/16 07:04:02;;;;;;;11.18;5.75;;;2.80;94.30;;;;;;5076298;28;20063;-78
2022/01/16 07:06:28;;;;;;;11.65;5.88;;;2.80;94.30;;;;;;5077791;28;20051;-78
2022/01/16 07:08:54;;;;;;;12.73;6.13;;;2.80;94.30;;;;;;5077131;28;20047;-78
2022/01/16 07:11:20;;;;;;;11.43;5.70;;;2.80;94.30;;;;;;5094104;28;20047;-79
2022/01/16 07:13:46;;;;;;;10.55;4.93;;;2.80;94.30;;;;;;5081503;28;20069;-78
2022/01/16 07:16:12;;;;;;;10.48;5.60;;;2.80;94.30;;;;;;5081063;28;20502;-78
2022/01/16 07:18:38;;;;;;;12.70;5.03;;;2.80;94.30;;;;;;5081432;28;20099;-78
2022/01/16 07:21:12;;;;;;;10.73;4.80;;;2.90;94.30;;;;;;5078803;28;20040;-78
2022/01/16 07:23:41;;;;;;;11.63;5.55;;;2.90;94.30;;;;;;5079440;28;20044;-79
2022/01/16 07:26:07;;;;;;;10.98;5.25;;;2.90;94.30;;;;;;5076751;28;20394;-78
2022/01/16 07:28:33;;;;;;;10.77;5.13;;;2.90;94.30;;;;;;5081155;28;20549;-78
2022/01/16 07:30:59;;;;;;;11.85;5.40;;;2.90;94.30;;;;;;5081321;28;20142;-78
2022/01/16 07:33:25;;;;;;;10.88;5.15;;;2.90;94.30;;;;;;5081410;28;20035;-78
2022/01/16 07:35:51;;;;;;;8.52;4.60;;;3.00;94.30;;;;;;5081450;28;20088;-78
2022/01/16 07:38:18;;;;;;;10.07;4.97;;;3.00;94.30;;;;;;5081183;28;20043;-78
2022/01/16 07:40:43;;;;;;;11.25;5.65;;;3.00;94.30;;;;;;5098405;28;20039;-77
2022/01/16 07:43:09;;;;;;;10.68;4.85;;;3.10;94.30;;;;;;5098508;28;20092;-77
2022/01/16 07:45:37;;;;;;;9.93;5.28;;;3.10;94.30;;;;;;5081304;28;20051;-77
2022/01/16 07:48:06;;;;;;;11.00;5.63;;;3.20;94.30;;;;;;5081716;28;20141;-78
2022/01/16 07:50:33;;;;;;;12.05;5.82;;;3.10;94.20;;;;;;5116016;28;20031;-78
2022/01/16 07:52:59;;;;;;;12.02;5.53;;;3.20;94.20;;;;;;5081609;28;20035;-77
2022/01/16 07:55:26;;;;;;;11.13;5.43;;;3.20;94.20;;;;;;5098712;28;20447;-77
2022/01/16 07:57:54;;;;;;;10.60;5.57;;;3.20;94.20;;;;;;5081502;28;20075;-77
2022/01/16 08:00:22;;;;;;;10.85;5.57;;;3.20;94.20;;;;;;5098831;28;20138;-78
2022/01/16 08:02:49;;;;;;;9.82;5.47;;;3.30;94.20;;;;;;5098715;28;20038;-78
2022/01/16 08:05:16;;;;;;;9.45;5.32;;;3.30;94.20;;;;;;5081407;28;20046;-77
2022/01/16 08:07:42;;;;;;;10.55;5.68;;;3.30;94.10;;;;;;5081134;28;20428;-78
2022/01/16 08:10:09;;;;;;;11.65;5.85;;;3.30;94.10;;;;;;5081105;28;20067;-78
2022/01/16 08:12:35;;;;;;;10.43;5.35;;;3.30;94.10;;;;;;5080816;28;20042;-78
2022/01/16 08:15:02;;;;;;;11.15;5.63;;;3.30;94.10;;;;;;5080553;28;20034;-78
2022/01/16 08:17:27;;;;;;;12.57;6.00;;;3.40;94.10;;;;;;5098184;28;20534;-79
2022/01/16 08:19:53;;;;;;;9.75;5.30;;;3.40;94.10;;;;;;5094334;28;20130;-78
2022/01/16 08:22:19;;;;;;;10.05;5.25;;;3.40;94.10;;;;;;5095667;28;20041;-78
2022/01/16 08:24:45;;;;;;;12.80;6.22;;;3.50;94.10;;;;;;5133163;28;20032;-78
2022/01/16 08:27:10;;;;;;;10.20;4.85;;;3.50;94.10;;;;;;5133228;28;20043;-78
2022/01/16 08:29:36;;;;;;;11.65;6.07;;;3.50;94.10;;;;;;5097557;28;20121;-78
2022/01/16 08:32:02;;;;;;;9.93;4.97;;;3.60;94.10;;;;;;5115323;28;20084;-77
2022/01/16 08:34:28;;;;;;;9.23;4.55;;;3.60;94.10;;;;;;5101504;28;20036;-78
2022/01/16 08:36:54;;;;;;;12.60;5.10;;;3.60;94.10;;;;;;5118213;28;20039;-78
2022/01/16 08:39:19;;;;;;;8.43;4.70;;;3.70;94.10;;;;;;5136324;28;20039;-78
2022/01/16 08:41:45;;;;;;;11.57;5.30;;;3.70;94.10;;;;;;5101209;28;20039;-78
2022/01/16 08:44:11;;;;;;;8.43;4.40;;;3.70;94.00;;;;;;5117358;28;20526;-78
2022/01/16 08:46:37;;;;;;;10.90;5.47;;;3.80;94.10;;;;;;5117325;28;20451;-78
2022/01/16 08:49:02;;;;;;;11.38;5.20;;;3.80;94.00;;;;;;5099571;28;20517;-78
2022/01/16 08:51:28;;;;;;;11.38;5.55;;;3.90;94.00;;;;;;5100645;28;20046;-78
2022/01/16 08:53:54;;;;;;;11.80;5.32;;;3.90;94.00;;;;;;5100585;28;20032;-77
2022/01/16 08:56:20;;;;;;;7.57;4.43;;;4.00;94.00;;;;;;5099622;28;20111;-78
2022/01/16 08:58:46;;;;;;;10.00;5.63;;;4.00;93.90;;;;;;5117929;28;20104;-78
2022/01/16 09:01:12;;;;;;;9.73;5.13;;;4.10;93.90;;;;;;5118019;28;20133;-78
2022/01/16 09:03:38;;;;;;;9.75;5.70;;;4.10;93.90;;;;;;5118097;28;20055;-78
2022/01/16 09:06:05;;;;;;;10.45;5.80;;;4.10;93.90;;;;;;5097287;28;20023;-77
2022/01/16 09:08:31;;;;;;;12.13;6.32;;;4.20;93.80;;;;;;5116327;28;20393;-76
2022/01/16 09:10:57;;;;;;;13.40;7.28;;;4.20;93.80;;;;;;5105434;28;20118;-79
2022/01/16 09:13:22;;;;;;;12.65;6.55;;;4.30;93.80;;;;;;5117319;28;20470;-79
2022/01/16 09:15:50;;;;;;;12.70;6.72;;;4.20;93.70;;;;;;5100335;28;20035;-78
2022/01/16 09:18:17;;;;;;;11.20;6.05;;;4.40;93.80;;;;;;5117410;28;20054;-78
2022/01/16 09:20:43;;;;;;;14.00;6.60;;;4.30;93.70;;;;;;5084701;28;20034;-78
2022/01/16 09:23:10;;;;;;;10.77;5.55;;;4.30;93.80;;;;;;5100235;28;20424;-79
2022/01/16 09:25:36;;;;;;;11.45;6.10;;;4.40;93.80;;;;;;5094963;28;20081;-79
2022/01/16 09:28:02;;;;;;;10.13;5.63;;;4.50;93.80;;;;;;5115576;28;20039;-79
2022/01/16 09:30:29;;;;;;;11.13;5.97;;;4.50;93.80;;;;;;5100276;28;20042;-79
2022/01/16 09:32:55;;;;;;;12.27;5.55;;;4.50;93.80;;;;;;5100143;28;20031;-77
2022/01/16 09:35:21;;;;;;;11.60;5.80;;;4.50;93.70;;;;;;5100681;28;20420;-76
2022/01/16 09:37:47;;;;;;;10.77;5.97;;;4.50;93.70;;;;;;5083629;28;20058;-77
2022/01/16 09:40:16;;;;;;;13.35;6.55;;;4.60;93.70;;;;;;5083094;28;20031;-78
2022/01/16 09:42:43;;;;;;;11.40;6.18;;;4.60;93.70;;;;;;5099634;28;20031;-77
2022/01/16 09:45:12;;;;;;;10.07;5.60;;;4.70;93.70;;;;;;5133912;27;20532;-77
2022/01/16 09:47:38;;;;;;;12.63;7.00;;;4.70;93.70;;;;;;5115599;28;20118;-78
2022/01/16 09:50:06;;;;;;;13.57;7.05;;;4.70;93.70;;;;;;5096412;28;20036;-80
2022/01/16 09:52:36;;;;;;;11.65;6.80;;;4.80;93.70;;;;;;5080646;28;20455;-79
2022/01/16 09:55:03;;;;;;;13.90;6.45;;;4.80;93.70;;;;;;5095672;28;20088;-78
2022/01/16 09:57:29;;;;;;;12.45;6.25;;;4.80;93.70;;;;;;5097870;28;20173;-78
2022/01/16 09:59:54;;;;;;;11.48;6.68;;;4.80;93.70;;;;;;5099571;28;20138;-79
2022/01/16 10:02:20;;;;;;;11.90;6.75;;;4.80;93.70;;;;;;5099741;28;20437;-80
2022/01/16 10:04:46;;;;;;;13.60;7.05;;;4.90;93.70;;;;;;5116507;28;20038;-78
2022/01/16 10:07:15;;;;;;;13.18;7.13;;;4.90;93.70;;;;;;5117120;28;20027;-79
2022/01/16 10:09:43;;;;;;;12.93;7.35;;;4.90;93.70;;;;;;5099406;28;20035;-81
2022/01/16 10:12:16;;;;;;;14.82;7.82;;;5.00;93.70;;;;;;5116761;28;20555;-78
2022/01/16 10:14:47;;;;;;;14.27;7.45;;;5.00;93.70;;;;;;5100154;28;20023;-78
2022/01/16 10:17:17;;;;;;;14.13;7.03;;;5.00;93.70;;;;;;5116986;28;20046;-77
2022/01/16 10:19:43;;;;;;;14.18;7.00;;;5.00;93.70;;;;;;5099727;28;20081;-80
2022/01/16 10:22:12;;;;;;;17.70;9.10;;;5.00;93.60;;;;;;5095972;28;20118;-77
2022/01/16 10:24:40;;;;;;;18.70;9.25;;;5.10;93.70;;;;;;5095589;28;20027;-78
2022/01/16 10:27:14;;;;;;;19.17;9.52;;;5.00;93.70;;;;;;5112069;28;20057;-78
2022/01/16 10:29:47;;;;;;;17.83;8.50;;;5.00;93.60;;;;;;5114167;28;20386;-77
2022/01/16 10:32:23;;;;;;;14.90;7.85;;;5.00;93.60;;;;;;5096044;28;20084;-78
2022/01/16 10:34:53;;;;;;;14.30;7.63;;;5.00;93.70;;;;;;5112656;28;20032;-79
2022/01/16 10:37:31;;;;;;;17.17;8.27;;;5.00;93.70;;;;;;5112678;28;20032;-79
2022/01/16 10:40:09;;;;;;;14.75;7.55;;;5.10;93.70;;;;;;5111671;28;20104;-78
2022/01/16 10:42:36;;;;;;;12.70;6.88;;;5.10;93.70;;;;;;5093087;28;20047;-78
2022/01/16 10:45:06;;;;;;;17.40;7.78;;;5.00;93.70;;;;;;5113658;28;20462;-79
2022/01/16 10:47:36;;;;;;;16.27;7.53;;;5.00;93.70;;;;;;5095558;28;20056;-79
2022/01/16 10:50:09;;;;;;;18.52;8.85;;;5.00;93.70;;;;;;5094834;28;20032;-78
2022/01/16 10:52:53;;;;;;;16.80;8.10;;;5.10;93.80;;;;;;5113479;28;20032;-79
2022/01/16 10:55:23;;;;;;;18.10;7.97;;;5.10;93.80;;;;;;5113855;28;20078;-79
2022/01/16 10:57:49;;;;;;;16.13;7.75;;;5.00;93.80;;;;;;5112108;28;20039;-79
2022/01/16 11:00:19;;;;;;;19.63;8.55;;;5.00;93.80;;;;;;5114007;28;20107;-79
2022/01/16 11:02:47;;;;;;;12.90;6.93;;;5.10;93.80;;;;;;5110747;28;20036;-80
2022/01/16 11:05:16;;;;;;;15.85;8.23;;;5.10;93.80;;;;;;5097084;28;20513;-79
2022/01/16 11:07:42;;;;;;;16.73;7.93;;;5.00;93.80;;;;;;5134011;28;20042;-78
2022/01/16 11:10:26;;;;;;;16.27;8.63;;;5.10;93.80;;;;;;5134118;28;20023;-79
2022/01/16 11:12:54;;;;;;;15.55;7.88;;;5.10;93.80;;;;;;5115403;28;20587;-79
2022/01/16 11:15:21;;;;;;;17.42;8.43;;;5.10;93.80;;;;;;5098810;28;20023;-78
2022/01/16 11:17:46;;;;;;;21.75;9.15;;;5.10;93.80;;;;;;5133791;28;20029;-78
2022/01/16 11:20:14;;;;;;;19.58;8.68;;;5.10;93.80;;;;;;5097808;28;20043;-79
2022/01/16 11:25:31;;;;;;;20.98;9.95;;;5.10;93.80;;;;;;5133574;28;20061;-79
2022/01/16 11:28:00;;;;;;;18.77;8.88;;;5.10;93.80;;;;;;5100204;28;20035;-77
2022/01/16 11:30:27;;;;;;;22.38;10.65;;;5.20;93.80;;;;;;5133520;28;20477;-77
2022/01/16 11:32:53;;;;;;;21.70;10.13;;;5.20;93.80;;;;;;5111779;28;20449;-78
2022/01/16 11:35:20;;;;;;;20.10;9.52;;;5.20;93.80;;;;;;5076691;28;20027;-78
2022/01/16 11:37:46;;;;;;;20.42;9.63;;;5.30;93.80;;;;;;5112963;28;20066;-79
2022/01/16 11:40:38;;;;;;;19.65;9.13;;;5.20;93.80;;;;;;5113270;28;20111;-78
2022/01/16 11:43:15;;;;;;;21.23;9.95;;;5.20;93.80;;;;;;5079043;28;20123;-80
2022/01/16 11:45:47;;;;;;;20.58;9.93;;;5.20;93.80;;;;;;5110253;28;20471;-80
2022/01/16 11:48:17;;;;;;;21.75;9.75;;;5.20;93.80;;;;;;5112160;28;20568;-78
2022/01/16 11:50:43;;;;;;;19.75;8.30;;;5.20;93.80;;;;;;5111205;28;20118;-78
2022/01/16 11:53:09;;;;;;;17.70;8.18;;;5.20;93.80;;;;;;5110769;28;20126;-79
2022/01/16 11:55:35;;;;;;;16.27;7.57;;;5.20;93.80;;;;;;5093348;28;20446;-79
2022/01/16 11:58:01;;;;;;;19.80;8.38;;;5.20;93.80;;;;;;5095480;28;20066;-78
2022/01/16 12:00:43;;;;;;;17.92;8.25;;;5.30;93.80;;;;;;5115272;28;20035;-78
2022/01/16 12:03:32;;;;;;;17.35;8.00;;;5.30;93.90;;;;;;5113599;28;20019;-79
2022/01/16 12:06:28;;;;;;;20.08;8.90;;;5.30;93.80;;;;;;5110148;28;20062;-78
2022/01/16 12:08:56;;;;;;;22.67;9.95;;;5.30;93.80;;;;;;5112218;28;20035;-78
2022/01/16 12:11:38;;;;;;;21.15;8.70;;;5.30;93.80;;;;;;5097078;28;20130;-79
2022/01/16 12:14:06;;;;;;;25.58;10.73;;;5.30;93.80;;;;;;5094113;28;20489;-79
2022/01/16 12:16:42;;;;;;;26.83;10.65;;;5.20;93.80;;;;;;5097329;28;20059;-79
2022/01/16 12:19:43;;;;;;;23.58;11.40;;;5.30;93.80;;;;;;5069277;28;20044;-78
2022/01/16 12:22:12;;;;;;;26.40;11.90;;;5.30;93.80;;;;;;5052719;28;20571;-79
2022/01/16 12:24:41;;;;;;;27.85;11.93;;;5.30;93.80;;;;;;5036317;28;20269;-78
2022/01/16 12:27:23;;;;;;;25.77;11.00;;;5.30;93.80;;;;;;5052671;28;20036;-78
2022/01/16 12:30:08;;;;;;;24.92;9.85;;;5.40;93.80;;;;;;5069636;28;20151;-78
2022/01/16 12:32:52;;;;;;;22.17;9.85;;;5.40;93.80;;;;;;5069469;28;20083;-78
2022/01/16 12:35:51;;;;;;;20.98;10.38;;;5.40;93.80;;;;;;5036034;28;20428;-79
2022/01/16 12:38:20;;;;;;;22.17;10.27;;;5.40;93.80;;;;;;5038650;28;20488;-79
2022/01/16 12:40:52;;;;;;;19.05;9.10;;;5.40;93.70;;;;;;5053242;28;20476;-80
2022/01/16 12:45:58;;;;;;;17.90;8.07;;;5.50;93.70;;;;;;5101259;28;20035;-78
2022/01/16 12:48:24;;;;;;;19.08;8.15;;;5.50;93.70;;;;;;5114130;28;20031;-78
2022/01/16 12:50:57;;;;;;;18.73;7.78;;;5.60;93.70;;;;;;5113919;28;20471;-79
2022/01/16 12:53:47;;;;;;;16.70;6.90;;;5.60;93.70;;;;;;5132778;28;20036;-78
2022/01/16 12:56:15;;;;;;;18.73;7.63;;;5.60;93.70;;;;;;5132222;28;20039;-78
2022/01/16 12:58:41;;;;;;;13.77;6.20;;;5.70;93.70;;;;;;5114033;28;20394;-78
2022/01/16 13:01:07;;;;;;;17.40;7.40;;;5.70;93.70;;;;;;5132727;28;20044;-78
2022/01/16 13:03:35;;;;;;;14.52;6.30;;;5.70;93.70;;;;;;5114037;28;20034;-78
2022/01/16 13:06:21;;;;;;;13.63;5.88;;;5.80;93.70;;;;;;5132255;28;20023;-78
2022/01/16 13:08:52;;;;;;;19.63;8.07;;;5.90;93.70;;;;;;5093426;28;20039;-79
2022/01/16 13:11:18;;;;;;;14.35;6.75;;;5.80;93.70;;;;;;5076002;28;20113;-79
2022/01/16 13:13:43;;;;;;;17.33;7.22;;;5.90;93.70;;;;;;5109025;28;20035;-79
2022/01/16 13:16:26;;;;;;;17.35;7.53;;;5.90;93.70;;;;;;5111951;28;20030;-79
2022/01/16 13:19:00;;;;;;;17.80;7.20;;;6.00;93.70;;;;;;5111749;28;20487;-78
2022/01/16 13:21:32;;;;;;;17.38;7.55;;;6.10;93.70;;;;;;5115407;28;20047;-79
2022/01/16 13:23:58;;;;;;;16.27;7.40;;;6.10;93.60;;;;;;5100774;28;20031;-79
2022/01/16 13:26:26;;;;;;;21.33;9.40;;;6.10;93.60;;;;;;5096599;28;20108;-79
2022/01/16 13:29:08;;;;;;;20.88;10.25;;;6.10;93.60;;;;;;5099581;28;20055;-79
2022/01/16 13:31:34;;;;;;;23.98;10.40;;;6.10;93.60;;;;;;5116980;28;20398;-79
2022/01/16 13:34:09;;;;;;;20.20;9.98;;;6.10;93.50;;;;;;5097192;28;20035;-79
2022/01/16 13:36:35;;;;;;;24.92;9.38;;;6.20;93.60;;;;;;5096232;28;20459;-78
2022/01/16 13:39:01;;;;;;;21.45;9.23;;;6.20;93.60;;;;;;5115015;28;20127;-78
2022/01/16 13:41:26;;;;;;;20.00;9.55;;;6.20;93.80;;;;;;5094480;28;20363;-78
2022/01/16 13:43:52;;;;;;;19.13;8.30;;;6.20;93.60;;;;;;5081628;28;20031;-78
2022/01/16 13:46:18;;;;;;;15.93;7.85;;;6.20;93.60;;;;;;5116703;28;20058;-78
2022/01/16 13:48:44;;;;;;;21.05;9.15;;;6.30;93.60;;;;;;5096785;28;20518;-77
2022/01/16 13:51:09;;;;;;;19.35;8.75;;;6.20;93.60;;;;;;5116059;28;20035;-78
2022/01/16 13:53:39;;;;;;;22.23;9.48;;;6.20;93.60;;;;;;5134949;28;20101;-78
2022/01/16 13:56:13;;;;;;;21.80;9.30;;;6.30;93.60;;;;;;5100251;28;20501;-78
2022/01/16 13:58:45;;;;;;;20.73;8.88;;;6.30;93.60;;;;;;5113532;28;20097;-78
2022/01/16 14:01:16;;;;;;;21.50;9.40;;;6.20;93.60;;;;;;5114711;28;20032;-78
2022/01/16 14:03:52;;;;;;;24.45;10.10;;;6.30;93.60;;;;;;5096971;28;20024;-78
2022/01/16 14:06:18;;;;;;;19.50;9.40;;;6.20;93.60;;;;;;5115315;28;20032;-78
2022/01/16 14:08:51;;;;;;;21.98;9.85;;;6.20;93.60;;;;;;5116344;28;20447;-78
2022/01/16 14:11:20;;;;;;;22.05;9.77;;;6.20;93.60;;;;;;5116283;28;20082;-78
2022/01/16 14:13:54;;;;;;;23.73;9.75;;;6.20;93.60;;;;;;5116281;28;20055;-79
2022/01/16 14:16:20;;;;;;;18.95;9.43;;;6.20;93.60;;;;;;5113307;28;20031;-79
2022/01/16 14:19:08;;;;;;;17.85;9.68;;;6.20;93.60;;;;;;5114543;28;20036;-78
2022/01/16 14:24:23;;;;;;;18.40;9.18;;;6.20;93.70;;;;;;5114186;28;20040;-78
2022/01/16 14:26:51;;;;;;;19.75;8.75;;;6.20;93.70;;;;;;5097592;28;20091;-79
2022/01/16 14:29:19;;;;;;;20.73;9.48;;;6.20;93.60;;;;;;5116221;27;20034;-78
2022/01/16 14:31:48;;;;;;;16.23;8.15;;;6.20;93.70;;;;;;5116820;28;20035;-80
2022/01/16 14:34:16;;;;;;;18.23;8.70;;;6.10;93.60;;;;;;5116991;28;20031;-79
2022/01/16 14:36:42;;;;;;;14.98;7.80;;;6.10;93.60;;;;;;5082681;28;20035;-77
2022/01/16 14:39:09;;;;;;;15.50;7.75;;;6.20;93.70;;;;;;5082244;28;20081;-78
2022/01/16 14:41:37;;;;;;;13.93;7.57;;;6.10;93.70;;;;;;5116176;28;20046;-78
2022/01/16 14:44:04;;;;;;;18.05;8.43;;;6.10;93.70;;;;;;5099792;28;20038;-79
2022/01/16 14:46:31;;;;;;;17.30;7.97;;;6.10;93.70;;;;;;5095310;28;20030;-79
2022/01/16 14:48:58;;;;;;;16.98;8.63;;;6.10;93.70;;;;;;5097095;28;20464;-79
2022/01/16 14:51:23;;;;;;;16.73;8.85;;;6.10;93.70;;;;;;5116216;28;20040;-79